ROMMA est une association bénévole à but non lucratif. Votre soutien est indispensable : ADHERER à ROMMA ou FAIRE un DON

Le Versoud - (38, Isère)

Vallée du Grésivaudan (220 m)   Longitude: 05° 51' 44" E   Latitude: 45° 13' 06" N Station partenaire n°6
 

Détail journalier du     <<     >>

Température Precipitation Humidité Pression Vent Dir Rafale Dir. rafale Ensol.
Heure (°C) (mm) (%) (hPa) (km/h) (km/h) (min)
01:00 4.6081103000---0
02:00 3.6085103000---0
03:00 3.2086103000---0
04:00 2.5088103000---0
05:00 2.0087103000---0
06:00 1.3089103000---0
07:00 0.8090103100---0
08:00 1.4090103100---0
09:00 4.4082103100---5
10:00 8.2063103100---60
11:00 11.0051103003NE60
12:00 13.9037102908NE60
13:00 16.002810281ENE10NE60
14:00 17.80251027010NNE60
15:00 19.7023102708NE60
16:00 20.8024102602NE60
17:00 21.0027102506NNE60
18:00 21.30281025011NNE60
19:00 16.0039102502NNE25
20:00 13.3044102600---0
21:00 11.4053102600---0
22:00 9.6061102700---0
23:00 8.4065102700---0
minuit 7.1072102700---0

Graphique du 22-03-2019

 

Serveur OMMA